sensor_id;sensor_type;location;lat;lon;timestamp;temperature;humidity
20862;DHT22;10591;52.532;13.348;2022-11-20T00:02:05;0.76;87.26
20862;DHT22;10591;52.532;13.348;2022-11-20T00:04:38;0.70;87.35
20862;DHT22;10591;52.532;13.348;2022-11-20T00:07:10;0.83;87.45
20862;DHT22;10591;52.532;13.348;2022-11-20T00:09:43;0.86;87.73
20862;DHT22;10591;52.532;13.348;2022-11-20T00:12:14;0.82;87.66
20862;DHT22;10591;52.532;13.348;2022-11-20T00:14:45;0.66;87.65
20862;DHT22;10591;52.532;13.348;2022-11-20T00:17:19;0.74;87.57
20862;DHT22;10591;52.532;13.348;2022-11-20T00:19:52;0.77;87.52
20862;DHT22;10591;52.532;13.348;2022-11-20T00:22:26;0.89;87.12
20862;DHT22;10591;52.532;13.348;2022-11-20T00:24:58;0.72;87.10
20862;DHT22;10591;52.532;13.348;2022-11-20T00:27:31;0.73;87.12
20862;DHT22;10591;52.532;13.348;2022-11-20T00:30:02;0.65;87.49
20862;DHT22;10591;52.532;13.348;2022-11-20T00:32:38;0.74;87.41
20862;DHT22;10591;52.532;13.348;2022-11-20T00:35:08;0.62;87.46
20862;DHT22;10591;52.532;13.348;2022-11-20T00:37:44;0.65;87.62
20862;DHT22;10591;52.532;13.348;2022-11-20T00:40:15;0.70;87.46
20862;DHT22;10591;52.532;13.348;2022-11-20T00:42:48;0.69;86.94
20862;DHT22;10591;52.532;13.348;2022-11-20T00:45:19;0.64;86.75
20862;DHT22;10591;52.532;13.348;2022-11-20T00:47:51;0.59;86.59
20862;DHT22;10591;52.532;13.348;2022-11-20T00:50:22;0.54;86.78
20862;DHT22;10591;52.532;13.348;2022-11-20T00:52:56;0.66;86.55
20862;DHT22;10591;52.532;13.348;2022-11-20T00:55:26;0.63;86.80
20862;DHT22;10591;52.532;13.348;2022-11-20T00:58:01;0.66;86.67
20862;DHT22;10591;52.532;13.348;2022-11-20T01:00:33;0.68;86.61
20862;DHT22;10591;52.532;13.348;2022-11-20T01:03:07;0.66;86.80
20862;DHT22;10591;52.532;13.348;2022-11-20T01:05:40;0.60;86.49
20862;DHT22;10591;52.532;13.348;2022-11-20T01:08:11;0.60;86.57
20862;DHT22;10591;52.532;13.348;2022-11-20T01:10:43;0.54;86.60
20862;DHT22;10591;52.532;13.348;2022-11-20T01:13:14;0.62;87.01
20862;DHT22;10591;52.532;13.348;2022-11-20T01:18:43;0.67;86.42
20862;DHT22;10591;52.532;13.348;2022-11-20T01:21:21;0.68;86.40
20862;DHT22;10591;52.532;13.348;2022-11-20T01:23:52;0.71;86.47
20862;DHT22;10591;52.532;13.348;2022-11-20T01:26:26;0.68;86.55
20862;DHT22;10591;52.532;13.348;2022-11-20T01:29:00;0.90;86.21
20862;DHT22;10591;52.532;13.348;2022-11-20T01:31:33;0.74;85.98
20862;DHT22;10591;52.532;13.348;2022-11-20T01:34:10;0.75;86.35
20862;DHT22;10591;52.532;13.348;2022-11-20T01:36:43;0.70;86.12
20862;DHT22;10591;52.532;13.348;2022-11-20T01:39:22;0.65;85.58
20862;DHT22;10591;52.532;13.348;2022-11-20T01:41:53;0.71;85.69
20862;DHT22;10591;52.532;13.348;2022-11-20T01:44:59;0.52;85.75
20862;DHT22;10591;52.532;13.348;2022-11-20T01:47:43;0.47;85.78
20862;DHT22;10591;52.532;13.348;2022-11-20T01:50:25;0.64;85.56
20862;DHT22;10591;52.532;13.348;2022-11-20T01:53:00;0.45;85.86
20862;DHT22;10591;52.532;13.348;2022-11-20T01:55:34;0.60;85.70
20862;DHT22;10591;52.532;13.348;2022-11-20T01:58:07;0.54;86.04
20862;DHT22;10591;52.532;13.348;2022-11-20T02:00:40;0.50;85.96
20862;DHT22;10591;52.532;13.348;2022-11-20T02:03:13;0.48;85.89
20862;DHT22;10591;52.532;13.348;2022-11-20T02:05:57;0.56;86.03
20862;DHT22;10591;52.532;13.348;2022-11-20T02:08:31;0.56;85.65
20862;DHT22;10591;52.532;13.348;2022-11-20T02:11:01;0.76;85.83
20862;DHT22;10591;52.532;13.348;2022-11-20T02:13:32;0.72;85.64
20862;DHT22;10591;52.532;13.348;2022-11-20T02:16:21;0.64;86.09
20862;DHT22;10591;52.532;13.348;2022-11-20T02:18:54;0.58;85.56
20862;DHT22;10591;52.532;13.348;2022-11-20T02:21:47;0.58;85.48
20862;DHT22;10591;52.532;13.348;2022-11-20T02:24:22;0.63;85.36
20862;DHT22;10591;52.532;13.348;2022-11-20T02:27:07;0.62;84.92
20862;DHT22;10591;52.532;13.348;2022-11-20T02:29:40;0.68;84.97
20862;DHT22;10591;52.532;13.348;2022-11-20T02:32:16;0.60;85.31
20862;DHT22;10591;52.532;13.348;2022-11-20T02:34:40;0.50;85.81
20862;DHT22;10591;52.532;13.348;2022-11-20T02:37:12;0.52;85.72
20862;DHT22;10591;52.532;13.348;2022-11-20T02:39:45;0.59;85.53
20862;DHT22;10591;52.532;13.348;2022-11-20T02:42:16;0.73;85.54
20862;DHT22;10591;52.532;13.348;2022-11-20T02:44:48;0.60;85.37
20862;DHT22;10591;52.532;13.348;2022-11-20T02:47:18;0.68;85.06
20862;DHT22;10591;52.532;13.348;2022-11-20T02:49:49;0.74;85.12
20862;DHT22;10591;52.532;13.348;2022-11-20T02:52:20;0.58;85.22
20862;DHT22;10591;52.532;13.348;2022-11-20T02:54:52;0.64;85.27
20862;DHT22;10591;52.532;13.348;2022-11-20T02:57:23;0.56;85.34
20862;DHT22;10591;52.532;13.348;2022-11-20T02:59:54;0.68;85.33
20862;DHT22;10591;52.532;13.348;2022-11-20T03:02:31;0.70;85.29
20862;DHT22;10591;52.532;13.348;2022-11-20T03:05:01;0.53;85.49
20862;DHT22;10591;52.532;13.348;2022-11-20T03:07:32;0.60;85.64
20862;DHT22;10591;52.532;13.348;2022-11-20T03:10:05;0.69;85.24
20862;DHT22;10591;52.532;13.348;2022-11-20T03:12:37;0.56;85.48
20862;DHT22;10591;52.532;13.348;2022-11-20T03:15:10;0.52;85.62
20862;DHT22;10591;52.532;13.348;2022-11-20T03:17:42;0.68;85.72
20862;DHT22;10591;52.532;13.348;2022-11-20T03:20:14;0.52;85.38
20862;DHT22;10591;52.532;13.348;2022-11-20T03:22:44;0.57;85.83
20862;DHT22;10591;52.532;13.348;2022-11-20T03:25:15;0.72;85.64
20862;DHT22;10591;52.532;13.348;2022-11-20T03:27:47;0.56;85.65
20862;DHT22;10591;52.532;13.348;2022-11-20T03:30:19;0.56;85.43
20862;DHT22;10591;52.532;13.348;2022-11-20T03:32:53;0.72;85.23
20862;DHT22;10591;52.532;13.348;2022-11-20T03:35:24;0.55;85.17
20862;DHT22;10591;52.532;13.348;2022-11-20T03:37:57;0.56;84.99
20862;DHT22;10591;52.532;13.348;2022-11-20T03:40:28;0.58;85.22
20862;DHT22;10591;52.532;13.348;2022-11-20T03:42:59;0.63;85.09
20862;DHT22;10591;52.532;13.348;2022-11-20T03:45:29;0.58;84.80
20862;DHT22;10591;52.532;13.348;2022-11-20T03:48:00;0.54;84.94
20862;DHT22;10591;52.532;13.348;2022-11-20T03:50:32;0.56;85.43
20862;DHT22;10591;52.532;13.348;2022-11-20T03:53:02;0.62;84.98
20862;DHT22;10591;52.532;13.348;2022-11-20T03:55:35;0.56;84.64
20862;DHT22;10591;52.532;13.348;2022-11-20T03:58:05;0.56;84.99
20862;DHT22;10591;52.532;13.348;2022-11-20T04:00:37;0.49;85.15
20862;DHT22;10591;52.532;13.348;2022-11-20T04:03:08;0.43;85.22
20862;DHT22;10591;52.532;13.348;2022-11-20T04:05:39;0.36;85.60
20862;DHT22;10591;52.532;13.348;2022-11-20T04:08:10;0.50;85.55
20862;DHT22;10591;52.532;13.348;2022-11-20T04:10:40;0.48;85.39
20862;DHT22;10591;52.532;13.348;2022-11-20T04:13:11;0.52;85.02
20862;DHT22;10591;52.532;13.348;2022-11-20T04:15:42;0.52;84.74
20862;DHT22;10591;52.532;13.348;2022-11-20T04:18:13;0.52;84.67
20862;DHT22;10591;52.532;13.348;2022-11-20T04:20:45;0.39;85.12
20862;DHT22;10591;52.532;13.348;2022-11-20T04:23:15;0.44;85.14
20862;DHT22;10591;52.532;13.348;2022-11-20T04:25:46;0.40;85.00
20862;DHT22;10591;52.532;13.348;2022-11-20T04:28:16;0.49;85.21
20862;DHT22;10591;52.532;13.348;2022-11-20T04:30:47;0.45;85.10
20862;DHT22;10591;52.532;13.348;2022-11-20T04:33:17;0.48;84.93
20862;DHT22;10591;52.532;13.348;2022-11-20T04:35:49;0.50;85.06
20862;DHT22;10591;52.532;13.348;2022-11-20T04:38:22;0.33;85.68
20862;DHT22;10591;52.532;13.348;2022-11-20T04:40:57;0.43;85.40
20862;DHT22;10591;52.532;13.348;2022-11-20T04:43:29;0.52;85.49
20862;DHT22;10591;52.532;13.348;2022-11-20T04:46:02;0.54;85.63
20862;DHT22;10591;52.532;13.348;2022-11-20T04:48:35;0.42;85.13
20862;DHT22;10591;52.532;13.348;2022-11-20T04:51:08;0.44;85.44
20862;DHT22;10591;52.532;13.348;2022-11-20T04:53:39;0.38;85.98
20862;DHT22;10591;52.532;13.348;2022-11-20T04:56:13;0.48;85.65
20862;DHT22;10591;52.532;13.348;2022-11-20T04:58:45;0.47;85.71
20862;DHT22;10591;52.532;13.348;2022-11-20T05:01:21;0.49;85.89
20862;DHT22;10591;52.532;13.348;2022-11-20T05:03:52;0.64;85.36
20862;DHT22;10591;52.532;13.348;2022-11-20T05:06:23;0.56;85.30
20862;DHT22;10591;52.532;13.348;2022-11-20T05:08:57;0.50;85.50
20862;DHT22;10591;52.532;13.348;2022-11-20T05:11:27;0.62;85.23
20862;DHT22;10591;52.532;13.348;2022-11-20T05:14:00;0.58;85.00
20862;DHT22;10591;52.532;13.348;2022-11-20T05:16:39;0.48;85.15
20862;DHT22;10591;52.532;13.348;2022-11-20T05:19:11;0.61;85.31
20862;DHT22;10591;52.532;13.348;2022-11-20T05:21:41;0.53;85.64
20862;DHT22;10591;52.532;13.348;2022-11-20T05:24:12;0.59;85.39
20862;DHT22;10591;52.532;13.348;2022-11-20T05:26:43;0.80;85.49
20862;DHT22;10591;52.532;13.348;2022-11-20T05:29:14;0.47;85.67
20862;DHT22;10591;52.532;13.348;2022-11-20T05:31:45;0.72;85.40
20862;DHT22;10591;52.532;13.348;2022-11-20T05:34:16;0.68;85.37
20862;DHT22;10591;52.532;13.348;2022-11-20T05:36:48;0.57;85.81
20862;DHT22;10591;52.532;13.348;2022-11-20T05:39:20;0.62;85.44
20862;DHT22;10591;52.532;13.348;2022-11-20T05:41:51;0.51;85.90
20862;DHT22;10591;52.532;13.348;2022-11-20T05:44:23;0.60;85.62
20862;DHT22;10591;52.532;13.348;2022-11-20T05:46:54;0.50;85.66
20862;DHT22;10591;52.532;13.348;2022-11-20T05:49:25;0.48;86.20
20862;DHT22;10591;52.532;13.348;2022-11-20T05:51:58;0.66;85.83
20862;DHT22;10591;52.532;13.348;2022-11-20T05:54:28;0.63;85.80
20862;DHT22;10591;52.532;13.348;2022-11-20T05:57:02;0.78;86.01
20862;DHT22;10591;52.532;13.348;2022-11-20T05:59:33;0.64;85.76
20862;DHT22;10591;52.532;13.348;2022-11-20T06:02:04;0.78;85.68
20862;DHT22;10591;52.532;13.348;2022-11-20T06:04:38;0.67;85.72
20862;DHT22;10591;52.532;13.348;2022-11-20T06:07:08;0.62;86.01
20862;DHT22;10591;52.532;13.348;2022-11-20T06:09:43;0.96;85.20
20862;DHT22;10591;52.532;13.348;2022-11-20T06:12:16;0.71;85.43
20862;DHT22;10591;52.532;13.348;2022-11-20T06:14:49;0.80;85.23
20862;DHT22;10591;52.532;13.348;2022-11-20T06:17:20;0.70;85.16
20862;DHT22;10591;52.532;13.348;2022-11-20T06:19:53;0.78;85.53
20862;DHT22;10591;52.532;13.348;2022-11-20T06:22:25;0.82;85.45
20862;DHT22;10591;52.532;13.348;2022-11-20T06:25:02;0.83;84.74
20862;DHT22;10591;52.532;13.348;2022-11-20T06:27:35;0.76;84.91
20862;DHT22;10591;52.532;13.348;2022-11-20T06:30:10;0.73;85.58
20862;DHT22;10591;52.532;13.348;2022-11-20T06:32:44;0.72;85.86
20862;DHT22;10591;52.532;13.348;2022-11-20T06:35:15;0.68;85.68
20862;DHT22;10591;52.532;13.348;2022-11-20T06:37:45;0.60;86.06
20862;DHT22;10591;52.532;13.348;2022-11-20T06:40:16;0.62;85.97
20862;DHT22;10591;52.532;13.348;2022-11-20T06:42:46;0.77;86.07
20862;DHT22;10591;52.532;13.348;2022-11-20T06:45:17;0.80;85.90
20862;DHT22;10591;52.532;13.348;2022-11-20T06:47:47;0.74;85.96
20862;DHT22;10591;52.532;13.348;2022-11-20T06:50:20;0.70;85.99
20862;DHT22;10591;52.532;13.348;2022-11-20T06:52:50;0.56;85.85
20862;DHT22;10591;52.532;13.348;2022-11-20T06:55:20;0.46;86.43
20862;DHT22;10591;52.532;13.348;2022-11-20T06:57:52;0.68;86.20
20862;DHT22;10591;52.532;13.348;2022-11-20T07:00:24;0.64;86.45
20862;DHT22;10591;52.532;13.348;2022-11-20T07:02:56;0.70;86.16
20862;DHT22;10591;52.532;13.348;2022-11-20T07:05:31;0.60;86.14
20862;DHT22;10591;52.532;13.348;2022-11-20T07:08:02;0.78;85.61
20862;DHT22;10591;52.532;13.348;2022-11-20T07:10:37;0.74;85.78
20862;DHT22;10591;52.532;13.348;2022-11-20T07:13:11;0.74;85.70
20862;DHT22;10591;52.532;13.348;2022-11-20T07:15:42;0.68;85.94
20862;DHT22;10591;52.532;13.348;2022-11-20T07:18:12;0.85;85.11
20862;DHT22;10591;52.532;13.348;2022-11-20T07:20:45;0.86;84.82
20862;DHT22;10591;52.532;13.348;2022-11-20T07:23:17;0.76;85.08
20862;DHT22;10591;52.532;13.348;2022-11-20T07:25:51;0.79;85.14
20862;DHT22;10591;52.532;13.348;2022-11-20T07:28:23;0.69;85.63
20862;DHT22;10591;52.532;13.348;2022-11-20T07:30:55;0.79;85.42
20862;DHT22;10591;52.532;13.348;2022-11-20T07:33:25;0.72;85.56
20862;DHT22;10591;52.532;13.348;2022-11-20T07:35:58;0.74;85.43
20862;DHT22;10591;52.532;13.348;2022-11-20T07:38:29;0.87;84.62
20862;DHT22;10591;52.532;13.348;2022-11-20T07:41:00;0.94;84.22
20862;DHT22;10591;52.532;13.348;2022-11-20T07:43:32;1.04;83.88
20862;DHT22;10591;52.532;13.348;2022-11-20T07:46:05;0.91;84.50
20862;DHT22;10591;52.532;13.348;2022-11-20T07:48:37;0.93;84.33
20862;DHT22;10591;52.532;13.348;2022-11-20T07:51:09;0.97;84.12
20862;DHT22;10591;52.532;13.348;2022-11-20T07:53:40;0.99;83.96
20862;DHT22;10591;52.532;13.348;2022-11-20T07:56:11;1.08;84.13
20862;DHT22;10591;52.532;13.348;2022-11-20T07:58:43;1.10;83.82
20862;DHT22;10591;52.532;13.348;2022-11-20T08:01:15;1.06;83.96
20862;DHT22;10591;52.532;13.348;2022-11-20T08:03:47;1.06;82.33
20862;DHT22;10591;52.532;13.348;2022-11-20T08:06:18;1.02;82.59
20862;DHT22;10591;52.532;13.348;2022-11-20T08:08:51;0.94;83.12
20862;DHT22;10591;52.532;13.348;2022-11-20T08:11:22;0.88;82.24
20862;DHT22;10591;52.532;13.348;2022-11-20T08:14:11;1.10;81.83
20862;DHT22;10591;52.532;13.348;2022-11-20T08:16:46;0.80;82.50
20862;DHT22;10591;52.532;13.348;2022-11-20T08:19:18;1.08;82.36
20862;DHT22;10591;52.532;13.348;2022-11-20T08:21:51;1.17;81.71
20862;DHT22;10591;52.532;13.348;2022-11-20T08:24:31;0.94;81.62
20862;DHT22;10591;52.532;13.348;2022-11-20T08:27:04;1.16;81.23
20862;DHT22;10591;52.532;13.348;2022-11-20T08:29:35;0.92;81.58
20862;DHT22;10591;52.532;13.348;2022-11-20T08:32:06;0.84;82.00
20862;DHT22;10591;52.532;13.348;2022-11-20T08:34:38;0.88;81.92
20862;DHT22;10591;52.532;13.348;2022-11-20T08:37:10;0.82;82.05
20862;DHT22;10591;52.532;13.348;2022-11-20T08:39:45;0.75;82.03
20862;DHT22;10591;52.532;13.348;2022-11-20T08:42:18;0.84;82.96
20862;DHT22;10591;52.532;13.348;2022-11-20T08:44:52;0.90;82.25
20862;DHT22;10591;52.532;13.348;2022-11-20T08:47:25;1.01;82.60
20862;DHT22;10591;52.532;13.348;2022-11-20T08:49:59;0.96;81.71
20862;DHT22;10591;52.532;13.348;2022-11-20T08:52:29;0.88;81.58
20862;DHT22;10591;52.532;13.348;2022-11-20T08:55:03;1.12;81.61
20862;DHT22;10591;52.532;13.348;2022-11-20T08:57:36;1.04;81.55
20862;DHT22;10591;52.532;13.348;2022-11-20T09:00:10;1.17;81.51
20862;DHT22;10591;52.532;13.348;2022-11-20T09:02:42;1.11;81.15
20862;DHT22;10591;52.532;13.348;2022-11-20T09:05:13;0.99;81.31
20862;DHT22;10591;52.532;13.348;2022-11-20T09:07:46;1.02;81.54
20862;DHT22;10591;52.532;13.348;2022-11-20T09:10:17;0.98;81.28
20862;DHT22;10591;52.532;13.348;2022-11-20T09:12:54;1.04;81.73
20862;DHT22;10591;52.532;13.348;2022-11-20T09:15:27;1.00;82.09
20862;DHT22;10591;52.532;13.348;2022-11-20T09:18:00;0.74;82.49
20862;DHT22;10591;52.532;13.348;2022-11-20T09:20:31;0.94;82.58
20862;DHT22;10591;52.532;13.348;2022-11-20T09:23:04;1.08;81.85
20862;DHT22;10591;52.532;13.348;2022-11-20T09:25:35;1.06;82.08
20862;DHT22;10591;52.532;13.348;2022-11-20T09:28:08;1.28;81.79
20862;DHT22;10591;52.532;13.348;2022-11-20T09:30:42;1.41;81.40
20862;DHT22;10591;52.532;13.348;2022-11-20T09:33:13;1.32;81.37
20862;DHT22;10591;52.532;13.348;2022-11-20T09:35:46;1.44;81.37
20862;DHT22;10591;52.532;13.348;2022-11-20T09:38:20;1.59;79.88
20862;DHT22;10591;52.532;13.348;2022-11-20T09:41:05;1.70;80.21
20862;DHT22;10591;52.532;13.348;2022-11-20T09:46:40;1.64;79.64
20862;DHT22;10591;52.532;13.348;2022-11-20T09:52:28;1.75;79.85
20862;DHT22;10591;52.532;13.348;2022-11-20T09:54:57;2.08;79.12
20862;DHT22;10591;52.532;13.348;2022-11-20T09:57:36;2.21;78.61
20862;DHT22;10591;52.532;13.348;2022-11-20T10:00:12;2.02;78.00
20862;DHT22;10591;52.532;13.348;2022-11-20T10:03:01;2.28;78.16
20862;DHT22;10591;52.532;13.348;2022-11-20T10:05:40;2.38;77.83
20862;DHT22;10591;52.532;13.348;2022-11-20T10:08:21;2.23;78.06
20862;DHT22;10591;52.532;13.348;2022-11-20T10:13:40;2.47;77.15
20862;DHT22;10591;52.532;13.348;2022-11-20T10:25:26;1.90;78.47
20862;DHT22;10591;52.532;13.348;2022-11-20T10:30:27;2.00;78.39
20862;DHT22;10591;52.532;13.348;2022-11-20T10:33:05;2.18;78.41
20862;DHT22;10591;52.532;13.348;2022-11-20T10:35:49;2.10;78.03
20862;DHT22;10591;52.532;13.348;2022-11-20T10:38:33;2.11;77.84
20862;DHT22;10591;52.532;13.348;2022-11-20T10:41:06;2.00;78.68
20862;DHT22;10591;52.532;13.348;2022-11-20T10:44:12;1.97;78.52
20862;DHT22;10591;52.532;13.348;2022-11-20T10:46:46;2.20;78.17
20862;DHT22;10591;52.532;13.348;2022-11-20T10:49:23;1.94;78.64
20862;DHT22;10591;52.532;13.348;2022-11-20T10:52:04;1.96;78.54
20862;DHT22;10591;52.532;13.348;2022-11-20T11:00:16;2.60;76.85
20862;DHT22;10591;52.532;13.348;2022-11-20T11:02:51;2.86;76.70
20862;DHT22;10591;52.532;13.348;2022-11-20T11:08:07;3.10;75.06
20862;DHT22;10591;52.532;13.348;2022-11-20T11:10:47;3.04;75.49
20862;DHT22;10591;52.532;13.348;2022-11-20T11:13:22;2.86;74.68
20862;DHT22;10591;52.532;13.348;2022-11-20T11:15:54;2.95;75.29
20862;DHT22;10591;52.532;13.348;2022-11-20T11:18:31;2.96;75.59
20862;DHT22;10591;52.532;13.348;2022-11-20T11:21:04;2.86;75.89
20862;DHT22;10591;52.532;13.348;2022-11-20T11:23:42;2.78;76.17
20862;DHT22;10591;52.532;13.348;2022-11-20T11:26:22;2.83;76.28
20862;DHT22;10591;52.532;13.348;2022-11-20T11:29:04;3.09;75.35
20862;DHT22;10591;52.532;13.348;2022-11-20T11:31:35;2.68;75.86
20862;DHT22;10591;52.532;13.348;2022-11-20T11:34:16;2.64;75.53
20862;DHT22;10591;52.532;13.348;2022-11-20T11:36:57;2.56;75.93
20862;DHT22;10591;52.532;13.348;2022-11-20T11:39:31;2.48;77.00
20862;DHT22;10591;52.532;13.348;2022-11-20T11:42:04;2.12;77.24
20862;DHT22;10591;52.532;13.348;2022-11-20T11:44:35;2.20;77.72
20862;DHT22;10591;52.532;13.348;2022-11-20T11:48:00;1.96;79.10
20862;DHT22;10591;52.532;13.348;2022-11-20T11:53:05;1.83;80.11
20862;DHT22;10591;52.532;13.348;2022-11-20T11:55:42;1.83;80.44
20862;DHT22;10591;52.532;13.348;2022-11-20T11:58:33;1.73;81.71
20862;DHT22;10591;52.532;13.348;2022-11-20T12:00:56;1.59;81.71
20862;DHT22;10591;52.532;13.348;2022-11-20T12:03:37;1.72;81.98
20862;DHT22;10591;52.532;13.348;2022-11-20T12:06:17;1.62;82.92
20862;DHT22;10591;52.532;13.348;2022-11-20T12:08:51;1.65;82.57
20862;DHT22;10591;52.532;13.348;2022-11-20T12:11:49;1.64;82.72
20862;DHT22;10591;52.532;13.348;2022-11-20T12:14:22;1.70;81.19
20862;DHT22;10591;52.532;13.348;2022-11-20T12:16:55;1.74;81.07
20862;DHT22;10591;52.532;13.348;2022-11-20T12:19:34;1.78;81.27
20862;DHT22;10591;52.532;13.348;2022-11-20T12:25:11;1.80;80.87
20862;DHT22;10591;52.532;13.348;2022-11-20T12:28:04;1.76;80.56
20862;DHT22;10591;52.532;13.348;2022-11-20T12:36:33;1.69;80.92
20862;DHT22;10591;52.532;13.348;2022-11-20T12:39:18;1.74;80.80
20862;DHT22;10591;52.532;13.348;2022-11-20T12:45:19;2.80;80.94
20862;DHT22;10591;52.532;13.348;2022-11-20T12:59:48;2.46;77.06
20862;DHT22;10591;52.532;13.348;2022-11-20T13:02:44;2.40;77.96
20862;DHT22;10591;52.532;13.348;2022-11-20T13:05:53;2.05;78.45
20862;DHT22;10591;52.532;13.348;2022-11-20T13:08:39;2.06;79.45
20862;DHT22;10591;52.532;13.348;2022-11-20T13:11:32;2.08;79.01
20862;DHT22;10591;52.532;13.348;2022-11-20T13:17:04;2.00;79.15
20862;DHT22;10591;52.532;13.348;2022-11-20T13:19:34;1.96;79.68
20862;DHT22;10591;52.532;13.348;2022-11-20T13:22:05;1.92;80.04
20862;DHT22;10591;52.532;13.348;2022-11-20T13:24:36;1.78;79.69
20862;DHT22;10591;52.532;13.348;2022-11-20T13:30:34;1.82;79.97
20862;DHT22;10591;52.532;13.348;2022-11-20T13:32:47;1.80;80.43
20862;DHT22;10591;52.532;13.348;2022-11-20T13:35:23;1.86;80.53
20862;DHT22;10591;52.532;13.348;2022-11-20T13:37:46;1.96;80.69
20862;DHT22;10591;52.532;13.348;2022-11-20T13:40:20;1.72;80.72
20862;DHT22;10591;52.532;13.348;2022-11-20T13:43:19;1.93;80.64
20862;DHT22;10591;52.532;13.348;2022-11-20T13:45:32;1.96;80.22
20862;DHT22;10591;52.532;13.348;2022-11-20T13:48:18;1.92;80.54
20862;DHT22;10591;52.532;13.348;2022-11-20T13:50:54;1.80;80.73
20862;DHT22;10591;52.532;13.348;2022-11-20T13:53:41;1.70;80.59
20862;DHT22;10591;52.532;13.348;2022-11-20T13:56:25;1.71;80.75
20862;DHT22;10591;52.532;13.348;2022-11-20T14:01:47;1.57;81.07
20862;DHT22;10591;52.532;13.348;2022-11-20T14:04:25;1.52;81.56
20862;DHT22;10591;52.532;13.348;2022-11-20T14:06:54;1.43;81.69
20862;DHT22;10591;52.532;13.348;2022-11-20T14:09:30;1.46;82.15
20862;DHT22;10591;52.532;13.348;2022-11-20T14:12:18;1.55;81.41
20862;DHT22;10591;52.532;13.348;2022-11-20T14:14:46;1.42;82.10
20862;DHT22;10591;52.532;13.348;2022-11-20T14:17:21;1.58;82.11
20862;DHT22;10591;52.532;13.348;2022-11-20T14:20:06;1.43;81.96
20862;DHT22;10591;52.532;13.348;2022-11-20T14:22:32;1.44;82.31
20862;DHT22;10591;52.532;13.348;2022-11-20T14:28:00;1.42;82.56
20862;DHT22;10591;52.532;13.348;2022-11-20T14:30:37;1.15;82.62
20862;DHT22;10591;52.532;13.348;2022-11-20T14:33:09;1.31;82.38
20862;DHT22;10591;52.532;13.348;2022-11-20T14:35:49;1.42;82.55
20862;DHT22;10591;52.532;13.348;2022-11-20T14:38:23;1.26;82.01
20862;DHT22;10591;52.532;13.348;2022-11-20T14:40:50;1.46;82.52
20862;DHT22;10591;52.532;13.348;2022-11-20T14:43:29;1.28;82.36
20862;DHT22;10591;52.532;13.348;2022-11-20T14:46:02;1.34;82.49
20862;DHT22;10591;52.532;13.348;2022-11-20T14:48:43;1.29;82.38
20862;DHT22;10591;52.532;13.348;2022-11-20T14:51:36;1.30;82.53
20862;DHT22;10591;52.532;13.348;2022-11-20T14:54:19;1.44;82.01
20862;DHT22;10591;52.532;13.348;2022-11-20T14:56:57;1.47;82.34
20862;DHT22;10591;52.532;13.348;2022-11-20T14:59:31;1.44;81.80
20862;DHT22;10591;52.532;13.348;2022-11-20T15:02:04;1.35;82.13
20862;DHT22;10591;52.532;13.348;2022-11-20T15:04:59;1.32;81.84
20862;DHT22;10591;52.532;13.348;2022-11-20T15:07:35;1.39;81.81
20862;DHT22;10591;52.532;13.348;2022-11-20T15:10:27;1.41;81.36
20862;DHT22;10591;52.532;13.348;2022-11-20T15:13:13;1.38;81.95
20862;DHT22;10591;52.532;13.348;2022-11-20T15:15:53;1.27;81.78
20862;DHT22;10591;52.532;13.348;2022-11-20T15:18:36;1.20;81.95
20862;DHT22;10591;52.532;13.348;2022-11-20T15:21:15;1.35;82.13
20862;DHT22;10591;52.532;13.348;2022-11-20T15:23:50;1.27;81.97
20862;DHT22;10591;52.532;13.348;2022-11-20T15:26:26;1.44;82.01
20862;DHT22;10591;52.532;13.348;2022-11-20T15:28:59;1.34;82.03
20862;DHT22;10591;52.532;13.348;2022-11-20T15:31:32;1.36;82.07
20862;DHT22;10591;52.532;13.348;2022-11-20T15:34:07;1.38;81.90
20862;DHT22;10591;52.532;13.348;2022-11-20T15:36:40;1.44;82.01
20862;DHT22;10591;52.532;13.348;2022-11-20T15:39:11;1.36;81.71
20862;DHT22;10591;52.532;13.348;2022-11-20T15:41:44;1.36;81.94
20862;DHT22;10591;52.532;13.348;2022-11-20T15:44:14;1.33;81.71
20862;DHT22;10591;52.532;13.348;2022-11-20T15:46:46;1.46;81.55
20862;DHT22;10591;52.532;13.348;2022-11-20T15:49:17;1.20;81.76
20862;DHT22;10591;52.532;13.348;2022-11-20T15:51:52;1.32;81.61
20862;DHT22;10591;52.532;13.348;2022-11-20T15:54:24;1.12;82.07
20862;DHT22;10591;52.532;13.348;2022-11-20T15:56:55;0.88;82.86
20862;DHT22;10591;52.532;13.348;2022-11-20T15:59:26;0.89;82.61
20862;DHT22;10591;52.532;13.348;2022-11-20T16:01:57;0.76;83.19
20862;DHT22;10591;52.532;13.348;2022-11-20T16:04:29;0.76;83.44
20862;DHT22;10591;52.532;13.348;2022-11-20T16:07:00;0.80;83.09
20862;DHT22;10591;52.532;13.348;2022-11-20T16:09:33;0.70;82.90
20862;DHT22;10591;52.532;13.348;2022-11-20T16:12:07;0.57;83.17
20862;DHT22;10591;52.532;13.348;2022-11-20T16:14:39;0.40;84.08
20862;DHT22;10591;52.532;13.348;2022-11-20T16:17:31;0.46;84.21
20862;DHT22;10591;52.532;13.348;2022-11-20T16:20:03;0.52;84.14
20862;DHT22;10591;52.532;13.348;2022-11-20T16:22:36;0.32;84.18
20862;DHT22;10591;52.532;13.348;2022-11-20T16:25:06;0.50;84.11
20862;DHT22;10591;52.532;13.348;2022-11-20T16:27:39;0.46;83.99
20862;DHT22;10591;52.532;13.348;2022-11-20T16:30:10;0.30;84.35
20862;DHT22;10591;52.532;13.348;2022-11-20T16:32:41;0.34;84.13
20862;DHT22;10591;52.532;13.348;2022-11-20T16:35:12;0.25;84.20
20862;DHT22;10591;52.532;13.348;2022-11-20T16:37:44;0.23;84.07
20862;DHT22;10591;52.532;13.348;2022-11-20T16:40:15;0.24;84.42
20862;DHT22;10591;52.532;13.348;2022-11-20T16:42:49;0.27;84.03
20862;DHT22;10591;52.532;13.348;2022-11-20T16:45:24;0.26;83.98
20862;DHT22;10591;52.532;13.348;2022-11-20T16:47:56;0.24;84.47
20862;DHT22;10591;52.532;13.348;2022-11-20T16:50:29;0.30;83.95
20862;DHT22;10591;52.532;13.348;2022-11-20T16:53:01;0.11;84.24
20862;DHT22;10591;52.532;13.348;2022-11-20T16:55:33;0.22;84.40
20862;DHT22;10591;52.532;13.348;2022-11-20T16:58:04;0.30;83.59
20862;DHT22;10591;52.532;13.348;2022-11-20T17:00:39;0.48;83.57
20862;DHT22;10591;52.532;13.348;2022-11-20T17:03:11;0.58;82.85
20862;DHT22;10591;52.532;13.348;2022-11-20T17:05:43;0.50;83.10
20862;DHT22;10591;52.532;13.348;2022-11-20T17:08:13;0.60;82.86
20862;DHT22;10591;52.532;13.348;2022-11-20T17:10:44;0.52;82.50
20862;DHT22;10591;52.532;13.348;2022-11-20T17:13:15;0.52;82.43
20862;DHT22;10591;52.532;13.348;2022-11-20T17:15:48;0.60;82.34
20862;DHT22;10591;52.532;13.348;2022-11-20T17:18:19;0.84;81.59
20862;DHT22;10591;52.532;13.348;2022-11-20T17:20:54;0.76;81.71
20862;DHT22;10591;52.532;13.348;2022-11-20T17:23:31;0.86;81.46
20862;DHT22;10591;52.532;13.348;2022-11-20T17:26:14;0.84;81.66